Time;durP1;ratioP1;P1;durP2;ratioP2;P2;SDS_P1;SDS_P2;PMS_P1;PMS_P2;Temp;Humidity;BMP_temperature;BMP_pressure;BME280_temperature;BME280_humidity;BME280_pressure;Samples;Min_cycle;Max_cycle;Signal;HPM_P1;HPM_P2
2021/10/20 00:01:34;;;;;;;3.80;3.23;;;15.50;99.90;;;;;;5048456;28;20227;-51
2021/10/20 00:04:02;;;;;;;5.73;3.40;;;15.50;99.90;;;;;;5058991;28;20614;-51
2021/10/20 00:06:29;;;;;;;4.57;3.40;;;15.50;99.90;;;;;;5045395;28;20200;-51
2021/10/20 00:08:57;;;;;;;3.87;2.93;;;15.50;99.90;;;;;;5051092;28;20307;-51
2021/10/20 00:11:24;;;;;;;4.83;3.30;;;15.50;99.90;;;;;;5048305;28;20335;-51
2021/10/20 00:13:50;;;;;;;4.77;3.03;;;15.50;99.90;;;;;;5044712;28;20236;-51
2021/10/20 00:16:18;;;;;;;3.50;3.20;;;15.50;99.90;;;;;;5048253;28;20623;-51
2021/10/20 00:18:49;;;;;;;4.17;3.00;;;15.40;99.90;;;;;;5050417;28;20232;-51
2021/10/20 00:21:21;;;;;;;5.63;3.03;;;15.50;99.90;;;;;;5049668;28;20284;-52
2021/10/20 00:23:48;;;;;;;7.67;3.03;;;15.40;99.90;;;;;;5041484;28;20642;-52
2021/10/20 00:26:14;;;;;;;3.30;3.00;;;15.40;99.90;;;;;;5042637;28;20673;-52
2021/10/20 00:28:41;;;;;;;4.77;3.13;;;15.40;99.90;;;;;;5048060;28;20678;-50
2021/10/20 00:31:08;;;;;;;5.10;3.37;;;15.40;99.90;;;;;;5049708;28;20726;-53
2021/10/20 00:33:35;;;;;;;3.83;3.17;;;15.40;99.90;;;;;;5044710;28;20580;-50
2021/10/20 00:36:02;;;;;;;3.93;3.03;;;15.50;99.90;;;;;;5045454;28;20257;-51
2021/10/20 00:38:29;;;;;;;5.03;3.60;;;15.40;99.90;;;;;;5048386;28;20590;-50
2021/10/20 00:40:56;;;;;;;6.33;3.80;;;15.40;99.90;;;;;;5048668;28;20213;-51
2021/10/20 00:43:25;;;;;;;3.37;2.90;;;15.40;99.90;;;;;;5043047;28;20229;-50
2021/10/20 00:45:52;;;;;;;3.30;2.90;;;15.40;99.90;;;;;;5045657;28;20199;-51
2021/10/20 00:48:19;;;;;;;4.80;3.37;;;15.50;99.90;;;;;;5049583;28;20906;-51
2021/10/20 00:50:46;;;;;;;8.90;3.00;;;15.40;99.90;;;;;;5042888;28;20286;-51
2021/10/20 00:53:13;;;;;;;2.90;2.60;;;15.40;99.90;;;;;;5044694;28;20395;-51
2021/10/20 00:55:40;;;;;;;4.97;3.00;;;15.50;99.90;;;;;;5042660;28;20201;-51
2021/10/20 00:58:07;;;;;;;5.93;2.90;;;15.50;99.90;;;;;;5048780;28;20201;-50
2021/10/20 01:00:34;;;;;;;3.43;3.00;;;15.40;99.90;;;;;;5049258;28;20284;-53
2021/10/20 01:03:02;;;;;;;4.53;3.37;;;15.40;99.90;;;;;;5047544;28;20196;-52
2021/10/20 01:05:29;;;;;;;5.07;3.10;;;15.40;99.90;;;;;;5046088;28;20464;-50
2021/10/20 01:07:56;;;;;;;4.20;3.17;;;15.40;99.90;;;;;;5045704;28;20550;-50
2021/10/20 01:10:23;;;;;;;6.70;3.30;;;15.40;99.90;;;;;;5042117;28;20217;-50
2021/10/20 01:12:51;;;;;;;4.33;3.30;;;15.40;99.90;;;;;;5040558;28;20288;-50
2021/10/20 01:15:23;;;;;;;4.90;3.10;;;15.40;99.90;;;;;;5042723;28;20194;-51
2021/10/20 01:17:51;;;;;;;3.80;3.00;;;15.40;99.90;;;;;;5049063;28;20196;-51
2021/10/20 01:20:25;;;;;;;4.20;3.00;;;15.40;99.90;;;;;;5046372;28;20940;-51
2021/10/20 01:22:52;;;;;;;4.73;3.23;;;15.40;99.90;;;;;;5047802;28;20279;-51
2021/10/20 01:25:21;;;;;;;6.10;3.00;;;15.40;99.90;;;;;;5046716;28;20269;-50
2021/10/20 01:27:48;;;;;;;3.50;2.93;;;15.40;99.90;;;;;;5048905;28;20240;-51
2021/10/20 01:30:15;;;;;;;3.53;3.20;;;15.40;99.90;;;;;;5042254;28;20617;-50
2021/10/20 01:32:42;;;;;;;4.63;2.80;;;15.40;99.90;;;;;;5045264;28;20247;-50
2021/10/20 01:35:09;;;;;;;3.90;2.83;;;15.40;99.90;;;;;;5028242;28;20251;-51
2021/10/20 01:37:36;;;;;;;4.93;3.27;;;15.40;99.90;;;;;;5047164;28;20553;-51
2021/10/20 01:40:05;;;;;;;3.53;3.03;;;15.40;99.90;;;;;;5040708;28;20227;-51
2021/10/20 01:42:32;;;;;;;6.43;3.23;;;15.40;99.90;;;;;;5046288;28;20197;-51
2021/10/20 01:44:59;;;;;;;6.13;3.20;;;15.40;99.90;;;;;;5042297;28;20220;-51
2021/10/20 01:47:26;;;;;;;3.87;3.00;;;15.40;99.90;;;;;;5044044;28;20197;-51
2021/10/20 01:49:54;;;;;;;3.80;2.93;;;15.30;99.90;;;;;;5036723;28;20250;-51
2021/10/20 01:52:21;;;;;;;5.40;3.10;;;15.30;99.90;;;;;;5047913;28;20448;-51
2021/10/20 01:54:48;;;;;;;4.00;3.17;;;15.30;99.90;;;;;;5039868;28;20691;-51
2021/10/20 01:57:15;;;;;;;4.67;2.70;;;15.40;99.90;;;;;;5042925;28;20197;-51
2021/10/20 01:59:42;;;;;;;4.73;2.87;;;15.40;99.90;;;;;;5046944;28;20253;-51
2021/10/20 02:02:21;;;;;;;4.70;2.80;;;15.40;99.90;;;;;;5045827;28;20192;-51
2021/10/20 02:04:49;;;;;;;2.97;2.60;;;15.40;99.90;;;;;;5041461;28;20960;-51
2021/10/20 02:07:16;;;;;;;4.17;3.20;;;15.30;99.90;;;;;;5059198;28;20204;-51
2021/10/20 02:09:44;;;;;;;6.07;3.13;;;15.40;99.90;;;;;;5039355;28;20263;-51
2021/10/20 02:12:11;;;;;;;3.40;3.10;;;15.40;99.90;;;;;;5045956;28;20197;-51
2021/10/20 02:14:38;;;;;;;7.10;4.50;;;15.40;99.90;;;;;;5048277;28;20471;-51
2021/10/20 02:17:06;;;;;;;4.10;3.40;;;15.30;99.90;;;;;;5043369;28;20225;-51
2021/10/20 02:19:33;;;;;;;4.80;3.10;;;15.30;99.90;;;;;;5048536;28;20208;-51
2021/10/20 02:22:02;;;;;;;3.33;3.03;;;15.40;99.90;;;;;;5040964;28;20201;-51
2021/10/20 02:24:29;;;;;;;3.53;3.23;;;15.30;99.90;;;;;;5048599;28;20251;-51
2021/10/20 02:26:56;;;;;;;4.30;3.10;;;15.30;99.90;;;;;;5044968;28;20201;-51
2021/10/20 02:29:23;;;;;;;3.27;2.83;;;15.30;99.90;;;;;;5046048;28;20202;-51
2021/10/20 02:31:50;;;;;;;3.67;3.00;;;15.30;99.90;;;;;;5046865;28;20225;-51
2021/10/20 02:34:19;;;;;;;4.90;3.27;;;15.30;99.90;;;;;;5042080;28;20678;-51
2021/10/20 02:36:46;;;;;;;3.33;2.90;;;15.30;99.90;;;;;;5042561;28;20221;-51
2021/10/20 02:39:13;;;;;;;4.07;3.23;;;15.30;99.90;;;;;;5044793;28;20223;-51
2021/10/20 02:41:40;;;;;;;4.33;2.97;;;15.30;99.90;;;;;;5043279;28;20240;-51
2021/10/20 02:44:07;;;;;;;4.33;2.83;;;15.30;99.90;;;;;;5047050;28;20213;-51
2021/10/20 02:46:34;;;;;;;3.90;3.27;;;15.30;99.90;;;;;;5047601;28;20204;-51
2021/10/20 02:49:02;;;;;;;3.20;2.80;;;15.30;99.90;;;;;;5046706;28;20871;-51
2021/10/20 02:51:30;;;;;;;4.30;3.30;;;15.30;99.90;;;;;;5046558;28;20287;-51
2021/10/20 02:53:57;;;;;;;4.47;3.37;;;15.30;99.90;;;;;;5045699;28;20295;-51
2021/10/20 02:56:25;;;;;;;5.60;3.20;;;15.30;99.90;;;;;;5045622;28;20239;-51
2021/10/20 02:58:53;;;;;;;5.67;3.60;;;15.30;99.90;;;;;;5041128;28;20226;-51
2021/10/20 03:01:20;;;;;;;4.40;3.50;;;15.30;99.90;;;;;;5046562;28;20201;-51
2021/10/20 03:03:47;;;;;;;5.10;3.53;;;15.30;99.90;;;;;;5047121;28;20260;-51
2021/10/20 03:06:17;;;;;;;6.17;3.10;;;15.30;99.90;;;;;;5044446;28;20258;-51
2021/10/20 03:08:44;;;;;;;5.23;3.70;;;15.30;99.90;;;;;;5044907;28;20227;-51
2021/10/20 03:11:11;;;;;;;5.03;3.40;;;15.30;99.90;;;;;;5045264;28;20223;-51
2021/10/20 03:13:38;;;;;;;8.00;3.83;;;15.40;99.90;;;;;;5046844;28;20197;-51
2021/10/20 03:16:06;;;;;;;5.07;3.53;;;15.40;99.90;;;;;;5047005;28;20200;-51
2021/10/20 03:18:33;;;;;;;4.93;3.63;;;15.30;99.90;;;;;;5047198;28;20315;-51
2021/10/20 03:21:01;;;;;;;4.80;3.20;;;15.40;99.90;;;;;;5046967;28;20240;-51
2021/10/20 03:23:27;;;;;;;4.30;3.50;;;15.40;99.90;;;;;;5045388;28;20718;-51
2021/10/20 03:25:55;;;;;;;5.30;3.57;;;15.30;99.90;;;;;;5041312;28;20271;-51
2021/10/20 03:28:22;;;;;;;7.67;3.90;;;15.30;99.90;;;;;;5046408;28;20234;-51
2021/10/20 03:30:49;;;;;;;5.00;3.73;;;15.30;99.90;;;;;;5045528;28;20239;-51
2021/10/20 03:33:16;;;;;;;6.20;4.27;;;15.30;99.90;;;;;;5051572;28;20220;-53
2021/10/20 03:35:43;;;;;;;4.73;3.70;;;15.30;99.90;;;;;;5039913;28;20212;-51
2021/10/20 03:38:11;;;;;;;4.17;3.77;;;15.30;99.90;;;;;;5048144;28;20321;-50
2021/10/20 03:40:37;;;;;;;5.07;4.03;;;15.30;99.90;;;;;;5045315;28;20718;-50
2021/10/20 03:43:05;;;;;;;4.73;3.57;;;15.30;99.90;;;;;;5046141;28;20229;-50
2021/10/20 03:45:32;;;;;;;4.83;3.60;;;15.30;99.90;;;;;;5047151;28;20339;-50
2021/10/20 03:47:59;;;;;;;6.20;4.03;;;15.30;99.90;;;;;;5047826;28;20228;-50
2021/10/20 03:50:26;;;;;;;7.07;4.20;;;15.40;99.90;;;;;;5048269;28;20303;-51
2021/10/20 03:52:52;;;;;;;7.13;4.27;;;15.30;99.90;;;;;;5048874;28;20291;-50
2021/10/20 03:55:19;;;;;;;5.53;4.10;;;15.30;99.90;;;;;;5049260;28;20292;-53
2021/10/20 03:57:46;;;;;;;6.07;3.67;;;15.30;99.90;;;;;;5051829;28;20288;-50
2021/10/20 04:00:16;;;;;;;4.50;2.93;;;15.40;99.90;;;;;;5050852;28;20263;-50
2021/10/20 04:02:44;;;;;;;7.07;3.77;;;15.40;99.90;;;;;;5052634;28;20235;-50
2021/10/20 04:05:17;;;;;;;4.93;3.70;;;15.40;99.90;;;;;;5050351;28;20290;-50
2021/10/20 04:07:46;;;;;;;4.60;3.73;;;15.40;99.90;;;;;;5050009;28;20232;-50
2021/10/20 04:10:21;;;;;;;4.07;3.67;;;15.40;99.90;;;;;;5048731;28;20668;-52
2021/10/20 04:12:49;;;;;;;6.57;4.20;;;15.40;99.90;;;;;;5049570;28;20236;-50
2021/10/20 04:15:18;;;;;;;4.40;3.97;;;15.40;99.90;;;;;;5050089;28;20191;-50
2021/10/20 04:17:46;;;;;;;4.93;3.93;;;15.40;99.90;;;;;;5051533;28;20235;-50
2021/10/20 04:20:15;;;;;;;6.93;3.97;;;15.40;99.90;;;;;;5050856;28;20219;-52
2021/10/20 04:22:42;;;;;;;4.47;3.70;;;15.40;99.90;;;;;;5051914;28;20271;-49
2021/10/20 04:25:10;;;;;;;3.77;3.27;;;15.40;99.90;;;;;;5045110;28;20204;-52
2021/10/20 04:27:38;;;;;;;4.43;3.77;;;15.40;99.90;;;;;;5047304;28;20729;-52
2021/10/20 04:30:07;;;;;;;5.60;3.90;;;15.40;99.90;;;;;;5050820;28;20261;-51
2021/10/20 04:32:34;;;;;;;4.57;4.07;;;15.40;99.90;;;;;;5049691;28;20226;-52
2021/10/20 04:35:01;;;;;;;7.77;4.00;;;15.50;99.90;;;;;;5044562;28;20665;-52
2021/10/20 04:37:28;;;;;;;4.23;3.33;;;15.50;99.90;;;;;;5049076;28;20220;-52
2021/10/20 04:39:57;;;;;;;4.80;3.90;;;15.50;99.90;;;;;;5047906;28;20237;-52
2021/10/20 04:42:28;;;;;;;4.33;3.87;;;15.50;99.90;;;;;;5055209;28;20229;-52
2021/10/20 04:44:56;;;;;;;6.27;3.60;;;15.50;99.90;;;;;;5050095;28;20664;-50
2021/10/20 04:47:23;;;;;;;6.33;3.30;;;15.40;99.90;;;;;;5049061;28;20208;-52
2021/10/20 04:49:50;;;;;;;6.70;3.97;;;15.50;99.90;;;;;;5049524;28;20244;-50
2021/10/20 04:52:22;;;;;;;5.77;3.80;;;15.50;99.90;;;;;;5050701;28;20282;-52
2021/10/20 04:54:49;;;;;;;4.60;3.90;;;15.50;99.90;;;;;;5049194;28;20279;-50
2021/10/20 04:57:16;;;;;;;5.93;3.77;;;15.40;99.90;;;;;;5049739;28;20232;-52
2021/10/20 04:59:43;;;;;;;5.77;3.37;;;15.40;99.90;;;;;;5047538;28;20241;-52
2021/10/20 05:02:10;;;;;;;5.73;4.50;;;15.40;99.90;;;;;;5045337;28;20249;-52
2021/10/20 05:04:37;;;;;;;4.80;3.60;;;15.40;99.90;;;;;;5049509;28;20673;-52
2021/10/20 05:07:04;;;;;;;4.63;3.83;;;15.40;99.90;;;;;;5043315;28;20227;-51
2021/10/20 05:09:31;;;;;;;6.37;3.90;;;15.40;99.90;;;;;;5046804;28;20573;-52
2021/10/20 05:11:58;;;;;;;5.33;4.17;;;15.30;99.90;;;;;;5042956;28;20283;-52
2021/10/20 05:14:25;;;;;;;4.63;3.87;;;15.30;99.90;;;;;;5046016;28;20359;-52
2021/10/20 05:16:52;;;;;;;9.83;4.23;;;15.30;99.90;;;;;;5042772;28;20196;-52
2021/10/20 05:19:19;;;;;;;6.33;4.53;;;15.30;99.90;;;;;;5044724;28;20293;-52
2021/10/20 05:21:45;;;;;;;5.57;4.47;;;15.30;99.90;;;;;;5047439;28;20231;-52
2021/10/20 05:24:12;;;;;;;5.10;4.60;;;15.20;99.90;;;;;;5048700;28;20581;-49
2021/10/20 05:26:39;;;;;;;5.83;4.40;;;15.30;99.90;;;;;;5043520;28;20556;-52
2021/10/20 05:29:06;;;;;;;6.73;4.17;;;15.30;99.90;;;;;;5047578;28;20468;-52
2021/10/20 05:31:33;;;;;;;5.43;4.20;;;15.30;99.90;;;;;;5045301;28;20641;-52
2021/10/20 05:34:00;;;;;;;5.73;4.13;;;15.30;99.90;;;;;;5041967;28;20391;-52
2021/10/20 05:36:27;;;;;;;6.23;4.43;;;15.30;99.90;;;;;;5044044;28;20220;-52
2021/10/20 05:38:54;;;;;;;7.00;4.30;;;15.30;99.90;;;;;;5046468;28;20372;-52
2021/10/20 05:41:20;;;;;;;5.33;3.60;;;15.30;99.90;;;;;;5042095;28;20674;-52
2021/10/20 05:43:47;;;;;;;6.47;4.20;;;15.20;99.90;;;;;;5045881;28;20698;-52
2021/10/20 05:46:14;;;;;;;5.60;4.43;;;15.30;99.90;;;;;;5043988;28;20251;-52
2021/10/20 05:48:41;;;;;;;4.70;3.80;;;15.30;99.90;;;;;;5048231;28;20292;-52
2021/10/20 05:51:08;;;;;;;4.80;4.30;;;15.20;99.90;;;;;;5049306;28;20696;-52
2021/10/20 05:53:35;;;;;;;6.20;4.53;;;15.30;99.90;;;;;;5045740;28;20252;-53
2021/10/20 05:56:03;;;;;;;7.03;4.70;;;15.30;99.90;;;;;;5038588;28;20621;-50
2021/10/20 05:58:29;;;;;;;6.77;4.50;;;15.20;99.90;;;;;;5041050;28;20258;-53
2021/10/20 06:00:56;;;;;;;5.17;4.00;;;15.30;99.90;;;;;;5052923;28;20622;-50
2021/10/20 06:03:23;;;;;;;6.70;5.13;;;15.30;99.90;;;;;;5045446;28;20208;-52
2021/10/20 06:05:51;;;;;;;4.47;4.07;;;15.20;99.90;;;;;;5044385;28;20287;-53
2021/10/20 06:08:17;;;;;;;5.13;4.17;;;15.20;99.90;;;;;;5042409;28;20199;-52
2021/10/20 06:10:44;;;;;;;5.77;4.30;;;15.20;99.90;;;;;;5046152;28;20308;-52
2021/10/20 06:13:11;;;;;;;4.70;4.30;;;15.20;99.90;;;;;;5046536;28;20231;-50
2021/10/20 06:15:41;;;;;;;4.47;3.97;;;15.20;99.90;;;;;;5043934;28;20233;-52
2021/10/20 06:18:08;;;;;;;5.80;4.20;;;15.30;99.90;;;;;;5046770;28;20195;-51
2021/10/20 06:20:35;;;;;;;5.33;4.30;;;15.30;99.90;;;;;;5043837;28;20209;-51
2021/10/20 06:23:03;;;;;;;7.30;4.77;;;15.30;99.90;;;;;;5050074;28;20234;-52
2021/10/20 06:25:31;;;;;;;7.20;4.37;;;15.30;99.90;;;;;;5041826;28;20210;-52
2021/10/20 06:27:58;;;;;;;6.83;4.10;;;15.30;99.90;;;;;;5040783;28;20235;-53
2021/10/20 06:30:25;;;;;;;4.83;4.27;;;15.30;99.90;;;;;;5033209;28;20702;-52
2021/10/20 06:32:52;;;;;;;7.07;4.13;;;15.30;99.90;;;;;;5032263;28;20209;-52
2021/10/20 06:35:19;;;;;;;8.60;4.60;;;15.30;99.90;;;;;;5043043;28;20295;-52
2021/10/20 06:37:47;;;;;;;7.97;4.73;;;15.40;99.90;;;;;;5033195;28;20221;-52
2021/10/20 06:40:14;;;;;;;7.73;4.37;;;15.30;99.90;;;;;;5046818;28;20211;-51
2021/10/20 06:42:42;;;;;;;4.63;4.20;;;15.40;99.90;;;;;;5034195;28;20271;-51
2021/10/20 06:45:09;;;;;;;5.80;4.43;;;15.40;99.90;;;;;;5030083;28;20213;-51
2021/10/20 06:47:37;;;;;;;7.93;4.27;;;15.40;99.90;;;;;;5033090;28;20293;-51
2021/10/20 06:50:05;;;;;;;6.60;4.43;;;15.40;99.90;;;;;;5037596;28;20248;-51
2021/10/20 06:52:32;;;;;;;6.33;4.80;;;15.40;99.90;;;;;;5035195;28;20304;-52
2021/10/20 06:54:59;;;;;;;5.63;4.23;;;15.40;99.90;;;;;;5044798;28;20694;-51
2021/10/20 06:57:26;;;;;;;5.37;4.47;;;15.40;99.90;;;;;;5040543;28;20201;-51
2021/10/20 06:59:53;;;;;;;6.03;3.97;;;15.50;99.90;;;;;;5045159;28;20200;-51
2021/10/20 07:02:19;;;;;;;5.53;4.67;;;15.50;99.90;;;;;;5036658;28;20209;-51
2021/10/20 07:04:46;;;;;;;6.00;4.37;;;15.50;99.90;;;;;;5033671;28;20225;-51
2021/10/20 07:07:15;;;;;;;5.27;4.30;;;15.50;99.90;;;;;;5038459;28;20517;-51
2021/10/20 07:09:42;;;;;;;4.30;3.87;;;15.60;99.90;;;;;;5040431;28;20192;-51
2021/10/20 07:12:09;;;;;;;5.23;3.87;;;15.60;99.90;;;;;;5030535;28;20247;-50
2021/10/20 07:14:35;;;;;;;8.73;4.60;;;15.60;99.90;;;;;;5045538;28;20259;-52
2021/10/20 07:17:05;;;;;;;5.87;4.43;;;15.70;99.90;;;;;;5034251;28;20269;-50
2021/10/20 07:19:32;;;;;;;6.37;4.50;;;15.60;99.90;;;;;;5045456;28;20677;-51
2021/10/20 07:21:59;;;;;;;7.83;4.33;;;15.60;99.90;;;;;;5041309;28;20229;-52
2021/10/20 07:24:26;;;;;;;5.17;4.20;;;15.60;99.90;;;;;;5038912;28;20686;-53
2021/10/20 07:26:53;;;;;;;5.77;4.70;;;15.50;99.90;;;;;;5041176;28;20296;-51
2021/10/20 07:29:20;;;;;;;6.20;5.07;;;15.50;99.90;;;;;;5036771;28;20224;-51
2021/10/20 07:31:47;;;;;;;5.30;4.80;;;15.50;99.90;;;;;;5046647;28;20702;-53
2021/10/20 07:34:13;;;;;;;9.43;4.50;;;15.50;99.90;;;;;;5044235;28;20234;-52
2021/10/20 07:36:42;;;;;;;8.43;5.47;;;15.50;99.90;;;;;;5033768;28;20309;-52
2021/10/20 07:39:09;;;;;;;5.93;4.60;;;15.50;99.90;;;;;;5039794;28;20237;-52
2021/10/20 07:41:36;;;;;;;7.33;5.60;;;15.40;99.90;;;;;;5034805;28;20247;-52
2021/10/20 07:44:03;;;;;;;5.87;5.10;;;15.40;99.90;;;;;;5032658;28;20216;-52
2021/10/20 07:46:30;;;;;;;5.23;4.73;;;15.40;99.90;;;;;;5036475;28;20691;-50
2021/10/20 07:48:57;;;;;;;7.53;5.30;;;15.40;99.90;;;;;;5044125;28;20205;-52
2021/10/20 07:51:26;;;;;;;5.63;5.07;;;15.40;99.90;;;;;;5034776;28;20310;-52
2021/10/20 07:53:53;;;;;;;6.57;5.23;;;15.50;99.90;;;;;;5045148;28;20223;-52
2021/10/20 07:56:20;;;;;;;8.03;5.73;;;15.40;99.90;;;;;;5036810;28;20218;-52
2021/10/20 07:58:47;;;;;;;7.87;5.10;;;15.40;99.90;;;;;;5037074;28;20273;-52
2021/10/20 08:01:13;;;;;;;6.77;5.07;;;15.50;99.90;;;;;;5035573;28;20269;-50
2021/10/20 08:03:41;;;;;;;7.30;5.83;;;15.50;99.90;;;;;;5041977;28;20317;-53
2021/10/20 08:06:07;;;;;;;6.10;5.17;;;15.50;99.90;;;;;;5039575;28;20199;-52
2021/10/20 08:08:34;;;;;;;6.47;5.00;;;15.50;99.90;;;;;;5041586;28;20578;-52
2021/10/20 08:11:01;;;;;;;7.40;5.70;;;15.50;99.90;;;;;;5039730;28;20217;-52
2021/10/20 08:13:28;;;;;;;7.17;5.67;;;15.50;99.90;;;;;;5037379;28;20200;-52
2021/10/20 08:15:55;;;;;;;8.77;5.57;;;15.50;99.90;;;;;;5048217;28;20596;-52
2021/10/20 08:18:22;;;;;;;7.03;5.90;;;15.50;99.90;;;;;;5048716;28;20263;-52
2021/10/20 08:20:50;;;;;;;6.80;5.50;;;15.50;99.90;;;;;;5039776;28;20211;-50
2021/10/20 08:23:16;;;;;;;9.63;6.17;;;15.50;99.90;;;;;;5051321;28;20227;-50
2021/10/20 08:25:43;;;;;;;6.43;5.30;;;15.60;99.90;;;;;;5041646;28;20245;-50
2021/10/20 08:28:10;;;;;;;6.90;5.97;;;15.60;99.90;;;;;;5034958;28;20651;-50
2021/10/20 08:30:37;;;;;;;6.93;5.90;;;15.70;99.90;;;;;;5038568;28;20660;-52
2021/10/20 08:33:05;;;;;;;7.53;5.77;;;15.70;99.90;;;;;;5039087;28;20209;-53
2021/10/20 08:35:33;;;;;;;7.00;5.70;;;15.80;99.90;;;;;;5042668;28;20292;-51
2021/10/20 08:38:05;;;;;;;6.03;5.37;;;15.90;99.90;;;;;;5034726;28;20255;-53
2021/10/20 08:40:47;;;;;;;9.90;6.17;;;16.20;99.90;;;;;;5051767;28;20634;-53
2021/10/20 08:43:16;;;;;;;6.47;5.17;;;16.50;99.90;;;;;;5052251;28;20204;-53
2021/10/20 08:45:44;;;;;;;8.27;5.67;;;16.80;99.90;;;;;;5051377;28;20506;-53
2021/10/20 08:48:13;;;;;;;7.23;5.10;;;16.60;99.90;;;;;;5051908;28;20586;-52
2021/10/20 08:50:52;;;;;;;7.33;5.70;;;16.40;99.90;;;;;;5038355;28;20679;-53
2021/10/20 08:53:19;;;;;;;7.57;5.87;;;16.40;99.90;;;;;;5051370;28;20285;-53
2021/10/20 08:55:47;;;;;;;9.47;5.20;;;16.30;99.90;;;;;;5050448;28;20312;-52
2021/10/20 08:58:15;;;;;;;7.20;5.37;;;16.20;99.90;;;;;;5051000;28;20243;-52
2021/10/20 09:00:42;;;;;;;6.40;5.50;;;16.20;99.90;;;;;;5051636;28;20243;-52
2021/10/20 09:03:11;;;;;;;6.47;5.07;;;16.20;99.90;;;;;;5050805;28;20208;-52
2021/10/20 09:05:38;;;;;;;9.83;5.83;;;16.20;99.90;;;;;;5050407;28;20298;-53
2021/10/20 09:08:06;;;;;;;9.53;5.50;;;16.30;99.90;;;;;;5051392;28;20278;-53
2021/10/20 09:10:33;;;;;;;7.40;6.10;;;16.30;99.90;;;;;;5049954;28;20261;-52
2021/10/20 09:13:02;;;;;;;7.40;6.13;;;16.30;99.90;;;;;;5042066;28;20637;-52
2021/10/20 09:15:31;;;;;;;7.20;6.10;;;16.40;99.90;;;;;;5050897;28;20211;-50
2021/10/20 09:18:03;;;;;;;7.07;5.37;;;16.50;99.90;;;;;;5051185;28;20304;-53
2021/10/20 09:20:33;;;;;;;7.70;5.70;;;16.50;99.90;;;;;;5049700;28;20207;-50
2021/10/20 09:23:03;;;;;;;6.43;5.53;;;16.50;99.90;;;;;;5037466;28;20296;-53
2021/10/20 09:25:58;;;;;;;10.50;5.80;;;16.60;99.90;;;;;;5037049;28;20193;-52
2021/10/20 09:28:32;;;;;;;6.07;5.47;;;16.60;99.90;;;;;;5035748;28;20258;-53
2021/10/20 09:31:05;;;;;;;6.47;5.83;;;16.70;99.90;;;;;;5044312;28;20316;-52
2021/10/20 09:33:34;;;;;;;9.13;6.30;;;16.70;99.90;;;;;;5050293;28;20294;-53
2021/10/20 09:36:21;;;;;;;5.53;5.03;;;16.90;99.90;;;;;;5044390;28;20239;-52
2021/10/20 09:38:49;;;;;;;7.07;4.83;;;17.10;99.90;;;;;;5049046;28;20204;-52
2021/10/20 09:41:17;;;;;;;10.03;5.40;;;17.30;99.90;;;;;;5049737;28;20727;-52
2021/10/20 09:43:52;;;;;;;7.60;4.80;;;17.30;99.90;;;;;;5049472;28;20292;-52
2021/10/20 09:46:37;;;;;;;7.90;5.27;;;17.60;99.90;;;;;;5038818;28;20224;-52
2021/10/20 09:49:13;;;;;;;6.53;4.70;;;17.40;99.90;;;;;;5050458;28;20193;-53
2021/10/20 09:51:40;;;;;;;5.97;5.10;;;17.30;99.90;;;;;;5048940;28;20219;-53
2021/10/20 09:54:26;;;;;;;7.33;5.27;;;17.10;99.90;;;;;;5046488;28;20229;-52
2021/10/20 09:57:03;;;;;;;6.33;4.93;;;17.10;99.90;;;;;;5048389;28;20751;-52
2021/10/20 09:59:30;;;;;;;6.17;5.07;;;17.10;99.90;;;;;;5050763;28;20268;-52
2021/10/20 10:01:58;;;;;;;6.13;5.27;;;17.10;99.90;;;;;;5047456;28;20260;-52
2021/10/20 10:04:26;;;;;;;7.53;5.07;;;17.10;99.90;;;;;;5041939;28;20231;-52
2021/10/20 10:06:53;;;;;;;7.20;5.07;;;17.10;99.90;;;;;;5029690;28;20202;-53
2021/10/20 10:09:25;;;;;;;6.50;5.47;;;17.10;99.90;;;;;;5042767;28;20218;-52
2021/10/20 10:12:08;;;;;;;5.30;4.77;;;17.00;99.90;;;;;;5038848;28;20221;-52
2021/10/20 10:14:39;;;;;;;7.97;4.83;;;17.00;99.90;;;;;;5041555;28;20270;-53
2021/10/20 10:17:08;;;;;;;7.13;4.87;;;17.00;99.90;;;;;;5047971;28;20217;-51
2021/10/20 10:19:39;;;;;;;6.10;5.13;;;17.00;99.90;;;;;;5047056;28;20202;-51
2021/10/20 10:22:26;;;;;;;5.10;4.60;;;17.00;99.90;;;;;;5035830;28;20201;-52
2021/10/20 10:24:58;;;;;;;8.17;4.50;;;17.00;99.90;;;;;;5035581;28;20288;-53
2021/10/20 10:27:25;;;;;;;6.23;4.80;;;16.90;99.90;;;;;;5035780;28;20275;-51
2021/10/20 10:30:23;;;;;;;6.23;5.20;;;17.00;99.90;;;;;;5039628;28;20207;-53
2021/10/20 10:32:57;;;;;;;8.07;4.93;;;16.90;99.90;;;;;;5039881;28;20211;-53
2021/10/20 10:35:35;;;;;;;6.67;4.73;;;16.90;99.90;;;;;;5038325;28;20232;-52
2021/10/20 10:38:04;;;;;;;6.03;5.03;;;16.90;99.90;;;;;;5038635;28;20221;-53
2021/10/20 10:40:32;;;;;;;6.70;4.70;;;16.90;99.90;;;;;;5032194;28;20289;-50
2021/10/20 10:43:08;;;;;;;6.97;4.60;;;16.90;99.90;;;;;;5038983;28;20200;-53
2021/10/20 10:45:35;;;;;;;7.87;4.83;;;17.00;99.90;;;;;;5033612;28;20367;-53
2021/10/20 10:48:06;;;;;;;6.67;4.90;;;17.00;99.90;;;;;;5040302;28;20241;-51
2021/10/20 10:50:38;;;;;;;6.57;5.13;;;17.10;99.90;;;;;;5038262;28;20203;-51
2021/10/20 10:53:06;;;;;;;6.00;4.73;;;17.20;99.90;;;;;;5039529;28;20396;-52
2021/10/20 10:55:33;;;;;;;5.83;4.43;;;17.40;99.90;;;;;;5037943;28;20268;-51
2021/10/20 10:58:15;;;;;;;5.13;4.63;;;17.40;99.90;;;;;;5034455;28;20193;-52
2021/10/20 11:00:41;;;;;;;5.40;4.70;;;17.40;99.90;;;;;;5030271;28;20248;-51
2021/10/20 11:03:08;;;;;;;5.70;4.30;;;17.30;99.90;;;;;;5029684;28;20198;-52
2021/10/20 11:05:36;;;;;;;5.67;4.47;;;17.30;99.90;;;;;;5046404;28;20323;-52
2021/10/20 11:08:10;;;;;;;5.00;4.43;;;17.20;99.90;;;;;;5044076;28;20513;-52
2021/10/20 11:10:39;;;;;;;5.87;4.53;;;17.20;99.90;;;;;;5045570;28;20241;-52
2021/10/20 11:13:07;;;;;;;5.57;4.50;;;17.20;99.90;;;;;;5047368;28;20217;-53
2021/10/20 11:15:35;;;;;;;5.03;3.93;;;17.20;99.90;;;;;;5049405;28;20210;-50
2021/10/20 11:18:02;;;;;;;5.90;4.33;;;17.20;99.90;;;;;;5048521;28;20291;-53
2021/10/20 11:20:33;;;;;;;5.13;4.63;;;17.20;99.90;;;;;;5038347;28;20199;-53
2021/10/20 11:23:06;;;;;;;9.10;5.00;;;17.20;99.90;;;;;;5035944;28;20709;-53
2021/10/20 11:25:38;;;;;;;6.33;4.97;;;17.30;99.90;;;;;;5044336;28;20305;-53
2021/10/20 11:28:06;;;;;;;7.40;4.37;;;17.40;99.90;;;;;;5044656;28;20206;-52
2021/10/20 11:30:37;;;;;;;4.47;4.07;;;17.40;99.90;;;;;;5034197;28;20242;-51
2021/10/20 11:33:13;;;;;;;6.40;4.47;;;17.40;99.90;;;;;;5039426;28;20284;-53
2021/10/20 11:35:40;;;;;;;4.67;4.17;;;17.40;99.90;;;;;;5047012;28;20225;-53
2021/10/20 11:38:09;;;;;;;4.83;4.33;;;17.50;99.90;;;;;;5046345;28;21180;-53
2021/10/20 11:40:45;;;;;;;5.10;4.23;;;17.60;99.90;;;;;;5040403;28;20285;-53
2021/10/20 11:43:19;;;;;;;5.87;4.83;;;17.60;99.90;;;;;;5041116;28;20221;-53
2021/10/20 11:45:47;;;;;;;7.00;4.70;;;17.60;99.90;;;;;;5049279;28;20258;-51
2021/10/20 11:48:19;;;;;;;5.77;4.33;;;17.50;99.90;;;;;;5049030;28;20636;-53
2021/10/20 11:50:55;;;;;;;5.20;4.07;;;17.50;99.90;;;;;;5042375;28;20213;-53
2021/10/20 11:53:22;;;;;;;5.53;4.60;;;17.50;99.90;;;;;;5048268;28;20212;-52
2021/10/20 11:55:58;;;;;;;7.57;5.07;;;17.40;99.90;;;;;;5049906;28;20522;-52
2021/10/20 11:58:28;;;;;;;5.47;4.30;;;17.50;99.90;;;;;;5045623;28;20468;-53
2021/10/20 12:01:00;;;;;;;5.87;4.37;;;17.50;99.90;;;;;;5040526;28;20204;-53
2021/10/20 12:03:41;;;;;;;6.37;4.50;;;17.50;99.90;;;;;;5054043;28;20204;-53
2021/10/20 12:06:11;;;;;;;4.43;4.03;;;17.60;99.90;;;;;;5033605;28;20207;-53
2021/10/20 12:08:43;;;;;;;6.73;4.10;;;17.50;99.90;;;;;;5040968;28;20218;-52
2021/10/20 12:11:10;;;;;;;5.20;4.47;;;17.50;99.90;;;;;;5046106;28;20373;-52
2021/10/20 12:13:38;;;;;;;5.37;4.50;;;17.60;99.90;;;;;;5051127;28;20344;-52
2021/10/20 12:16:11;;;;;;;7.57;4.77;;;17.50;99.90;;;;;;5039976;28;20679;-53
2021/10/20 12:18:40;;;;;;;4.87;4.30;;;17.50;99.90;;;;;;5037818;28;20280;-52
2021/10/20 12:21:12;;;;;;;5.73;4.20;;;17.60;99.90;;;;;;5046030;28;20545;-53
2021/10/20 12:23:42;;;;;;;5.67;4.73;;;17.60;99.90;;;;;;5037649;28;20657;-52
2021/10/20 12:26:09;;;;;;;5.10;4.30;;;17.50;99.90;;;;;;5030951;28;20291;-52
2021/10/20 12:28:39;;;;;;;7.53;4.40;;;17.50;99.90;;;;;;5037219;28;20261;-51
2021/10/20 12:31:11;;;;;;;5.93;4.53;;;17.60;99.90;;;;;;5045713;28;20253;-53
2021/10/20 12:33:44;;;;;;;5.73;4.43;;;17.60;99.90;;;;;;5033070;28;20216;-52
2021/10/20 12:36:15;;;;;;;4.97;4.20;;;17.60;99.90;;;;;;5037416;28;20262;-53
2021/10/20 12:38:44;;;;;;;6.57;4.20;;;17.60;99.90;;;;;;5036847;28;20201;-52
2021/10/20 12:41:14;;;;;;;4.73;4.30;;;17.60;99.90;;;;;;5033512;28;20721;-53
2021/10/20 12:43:45;;;;;;;4.80;4.30;;;17.60;99.90;;;;;;5041440;28;20207;-52
2021/10/20 12:46:29;;;;;;;4.40;4.00;;;17.50;99.90;;;;;;5043537;28;20192;-53
2021/10/20 12:48:57;;;;;;;4.60;3.93;;;17.50;99.90;;;;;;5049123;28;20315;-53
2021/10/20 12:51:30;;;;;;;5.07;4.27;;;17.50;99.90;;;;;;5042884;28;20197;-53
2021/10/20 12:53:59;;;;;;;5.60;4.70;;;17.60;99.90;;;;;;5040116;28;26335;-51
2021/10/20 12:56:27;;;;;;;6.00;4.10;;;17.60;99.90;;;;;;5033779;28;20243;-51